Time;durP1;ratioP1;P1;durP2;ratioP2;P2;SDS_P1;SDS_P2;PMS_P1;PMS_P2;Temp;Humidity;BMP_temperature;BMP_pressure;BME280_temperature;BME280_humidity;BME280_pressure;Samples;Min_cycle;Max_cycle;Signal;HPM_P1;HPM_P2
2021/01/04 00:01:06;;;;;;;31.77;21.83;;;4.70;99.90;;;;;;5092933;28;20208;-58
2021/01/04 00:04:14;;;;;;;28.87;20.93;;;4.80;99.90;;;;;;5092463;28;20351;-59
2021/01/04 00:07:09;;;;;;;34.90;23.17;;;4.90;99.90;;;;;;5092806;28;20693;-59
2021/01/04 00:09:48;;;;;;;31.57;22.37;;;5.00;99.90;;;;;;5092216;28;20281;-61
2021/01/04 00:12:17;;;;;;;30.77;21.30;;;5.00;99.90;;;;;;5092608;28;20260;-60
2021/01/04 00:14:58;;;;;;;29.47;21.57;;;4.90;99.90;;;;;;5092158;28;20253;-60
2021/01/04 00:17:41;;;;;;;31.80;22.53;;;4.80;99.90;;;;;;5092560;28;20215;-59
2021/01/04 00:20:17;;;;;;;33.00;21.80;;;4.90;99.90;;;;;;5091994;28;20243;-59
2021/01/04 00:22:51;;;;;;;31.57;22.83;;;4.80;99.90;;;;;;5092397;28;20203;-60
2021/01/04 00:25:26;;;;;;;30.87;21.23;;;4.90;99.90;;;;;;5092119;28;20239;-60
2021/01/04 00:28:00;;;;;;;31.53;22.40;;;4.90;99.90;;;;;;5092157;28;20582;-60
2021/01/04 00:30:30;;;;;;;30.47;21.33;;;4.90;99.90;;;;;;5092115;28;20204;-60
2021/01/04 00:33:01;;;;;;;29.70;21.17;;;5.00;99.90;;;;;;5091839;28;20239;-59
2021/01/04 00:35:29;;;;;;;28.70;20.80;;;5.10;99.90;;;;;;5091428;28;20668;-60
2021/01/04 00:38:18;;;;;;;29.70;20.83;;;4.90;99.90;;;;;;5091339;28;20563;-59
2021/01/04 00:40:57;;;;;;;27.90;20.70;;;4.80;99.90;;;;;;5091646;28;20261;-59
2021/01/04 00:43:33;;;;;;;31.63;22.93;;;4.70;99.90;;;;;;5091448;28;20208;-59
2021/01/04 00:46:00;;;;;;;28.50;21.57;;;4.80;99.90;;;;;;5091947;28;20223;-59
2021/01/04 00:48:35;;;;;;;29.10;21.07;;;4.90;99.90;;;;;;5091564;28;20231;-59
2021/01/04 00:51:13;;;;;;;30.70;21.73;;;4.90;99.90;;;;;;5091794;28;20199;-60
2021/01/04 00:53:43;;;;;;;30.40;21.33;;;4.80;99.90;;;;;;5091161;28;20234;-60
2021/01/04 00:56:27;;;;;;;29.47;21.70;;;4.80;99.90;;;;;;5091685;28;20211;-59
2021/01/04 00:59:30;;;;;;;30.17;22.23;;;4.70;99.90;;;;;;5091168;28;20228;-59
2021/01/04 01:02:19;;;;;;;28.33;21.50;;;4.60;99.90;;;;;;5091536;28;20212;-59
2021/01/04 01:04:52;;;;;;;29.50;21.40;;;4.60;99.90;;;;;;5091317;28;20228;-59
2021/01/04 01:07:33;;;;;;;29.23;21.83;;;4.60;99.90;;;;;;5091357;28;20740;-59
2021/01/04 01:10:05;;;;;;;30.27;21.17;;;4.50;99.90;;;;;;5091444;28;20224;-61
2021/01/04 01:12:45;;;;;;;29.67;21.23;;;4.50;99.90;;;;;;5091487;28;20741;-61
2021/01/04 01:15:20;;;;;;;28.40;20.90;;;4.60;99.90;;;;;;5091103;28;20204;-61
2021/01/04 01:18:24;;;;;;;30.40;21.17;;;4.60;99.90;;;;;;5091262;28;20215;-59
2021/01/04 01:20:54;;;;;;;30.00;20.30;;;4.60;99.90;;;;;;5091163;28;20272;-60
2021/01/04 01:23:25;;;;;;;29.30;20.80;;;4.70;99.90;;;;;;5090981;28;20215;-60
2021/01/04 01:26:02;;;;;;;30.53;21.87;;;4.80;99.90;;;;;;5091335;28;20270;-60
2021/01/04 01:28:50;;;;;;;29.10;20.83;;;4.80;99.90;;;;;;5090974;28;20285;-60
2021/01/04 01:31:40;;;;;;;30.33;21.50;;;4.80;99.90;;;;;;5091064;28;20691;-59
2021/01/04 01:34:29;;;;;;;31.30;22.67;;;4.80;99.90;;;;;;5091097;28;20212;-60
2021/01/04 01:37:21;;;;;;;30.73;22.53;;;4.90;99.90;;;;;;5091336;28;20203;-59
2021/01/04 01:40:15;;;;;;;32.87;22.30;;;4.90;99.90;;;;;;5091382;28;20231;-59
2021/01/04 01:43:27;;;;;;;31.67;21.50;;;4.90;99.90;;;;;;5091342;28;20254;-59
2021/01/04 01:45:59;;;;;;;26.67;20.87;;;4.90;99.90;;;;;;5054404;28;20228;-59
2021/01/04 01:48:54;;;;;;;29.63;20.87;;;4.80;99.90;;;;;;5093184;28;20231;-59
2021/01/04 01:51:45;;;;;;;28.23;20.93;;;4.70;99.90;;;;;;5095000;28;20234;-59
2021/01/04 01:54:28;;;;;;;30.43;21.47;;;4.80;99.90;;;;;;5094444;28;20200;-58
2021/01/04 01:57:13;;;;;;;29.90;21.80;;;4.80;99.90;;;;;;5095252;28;20214;-60
2021/01/04 01:59:56;;;;;;;30.60;21.63;;;4.80;99.90;;;;;;5094757;28;20224;-59
2021/01/04 02:02:29;;;;;;;30.13;21.80;;;4.80;99.90;;;;;;5094838;28;20695;-59
2021/01/04 02:05:03;;;;;;;29.43;21.40;;;4.90;99.90;;;;;;5094634;28;20329;-60
2021/01/04 02:07:36;;;;;;;28.47;20.57;;;4.90;99.90;;;;;;5095193;28;20207;-59
2021/01/04 02:10:11;;;;;;;31.30;21.87;;;4.80;99.90;;;;;;5094622;28;20280;-59
2021/01/04 02:12:46;;;;;;;29.63;21.33;;;4.90;99.90;;;;;;5094747;28;20562;-59
2021/01/04 02:15:16;;;;;;;28.83;21.40;;;4.90;99.90;;;;;;5094574;28;20192;-59
2021/01/04 02:17:56;;;;;;;29.93;21.40;;;5.00;99.90;;;;;;5094649;28;20205;-61
2021/01/04 02:21:07;;;;;;;27.80;20.03;;;5.10;99.90;;;;;;5094788;28;20204;-60
2021/01/04 02:23:38;;;;;;;30.17;20.73;;;5.10;99.90;;;;;;5094697;28;20668;-59
2021/01/04 02:26:12;;;;;;;32.63;22.10;;;5.10;99.90;;;;;;5094878;28;20282;-60
2021/01/04 02:28:52;;;;;;;27.60;20.57;;;5.10;99.90;;;;;;5094520;28;20219;-60
2021/01/04 02:31:18;;;;;;;32.00;22.80;;;5.10;99.90;;;;;;5094978;28;20223;-60
2021/01/04 02:33:45;;;;;;;30.87;21.27;;;5.00;99.90;;;;;;5094425;28;20204;-59
2021/01/04 02:36:12;;;;;;;30.90;21.27;;;5.10;99.90;;;;;;5095059;28;20201;-59
2021/01/04 02:38:47;;;;;;;29.77;21.23;;;5.10;99.90;;;;;;5094940;28;20277;-59
2021/01/04 02:41:15;;;;;;;30.80;22.27;;;5.10;99.90;;;;;;5094650;28;20671;-60
2021/01/04 02:43:41;;;;;;;31.20;23.03;;;5.10;99.90;;;;;;5094316;28;20269;-60
2021/01/04 02:46:13;;;;;;;28.43;21.80;;;5.20;99.90;;;;;;5094262;28;20233;-59
2021/01/04 02:48:55;;;;;;;30.87;20.87;;;5.10;99.90;;;;;;5093735;28;20224;-60
2021/01/04 02:51:26;;;;;;;33.30;22.20;;;5.10;99.90;;;;;;5094241;28;20257;-59
2021/01/04 02:54:04;;;;;;;46.10;35.67;;;5.10;99.90;;;;;;5093836;28;20234;-60
2021/01/04 02:56:53;;;;;;;31.33;21.00;;;5.00;99.90;;;;;;5093705;28;20299;-60
2021/01/04 02:59:46;;;;;;;34.47;22.73;;;5.00;99.90;;;;;;5093329;28;20458;-60
2021/01/04 03:02:17;;;;;;;28.00;19.60;;;4.90;99.90;;;;;;5093554;28;20698;-60
2021/01/04 03:04:46;;;;;;;30.70;20.83;;;4.80;99.90;;;;;;5093373;28;20220;-60
2021/01/04 03:07:17;;;;;;;29.70;20.63;;;4.70;99.90;;;;;;5093588;28;20208;-60
2021/01/04 03:09:45;;;;;;;31.00;21.80;;;4.60;99.90;;;;;;5093365;28;20338;-60
2021/01/04 03:12:15;;;;;;;31.47;22.13;;;4.60;99.90;;;;;;5093595;28;20207;-60
2021/01/04 03:14:52;;;;;;;34.83;21.57;;;4.60;99.90;;;;;;5093283;28;20207;-60
2021/01/04 03:17:27;;;;;;;31.33;20.97;;;4.70;99.90;;;;;;5093539;28;20212;-60
2021/01/04 03:19:58;;;;;;;30.70;20.97;;;4.70;99.90;;;;;;5093764;28;20234;-60
2021/01/04 03:22:25;;;;;;;27.83;19.70;;;4.70;99.90;;;;;;5093311;28;20207;-59
2021/01/04 03:24:52;;;;;;;27.23;19.83;;;4.60;99.90;;;;;;5092772;28;20220;-59
2021/01/04 03:27:25;;;;;;;27.13;18.80;;;4.50;99.90;;;;;;5093199;28;20212;-60
2021/01/04 03:29:51;;;;;;;27.67;19.00;;;4.50;99.90;;;;;;5093037;28;20250;-59
2021/01/04 03:32:18;;;;;;;25.67;18.53;;;4.50;99.90;;;;;;5093379;28;20212;-59
2021/01/04 03:34:45;;;;;;;28.57;19.70;;;4.50;99.90;;;;;;5092971;28;20265;-60
2021/01/04 03:37:11;;;;;;;28.80;19.80;;;4.50;99.90;;;;;;5093357;28;20212;-59
2021/01/04 03:39:37;;;;;;;28.27;19.97;;;4.60;99.90;;;;;;5092590;28;20277;-59
2021/01/04 03:42:04;;;;;;;30.10;20.40;;;4.70;99.90;;;;;;5093176;28;20253;-59
2021/01/04 03:44:31;;;;;;;27.37;18.97;;;4.70;99.90;;;;;;5092393;28;20205;-59
2021/01/04 03:46:57;;;;;;;29.17;20.33;;;4.70;99.90;;;;;;5092832;28;20208;-59
2021/01/04 03:49:23;;;;;;;28.43;19.80;;;4.60;99.90;;;;;;5092646;28;20224;-59
2021/01/04 03:51:52;;;;;;;28.67;20.20;;;4.40;99.90;;;;;;5093308;28;20205;-59
2021/01/04 03:54:18;;;;;;;30.90;20.73;;;4.20;99.90;;;;;;5093159;28;20303;-59
2021/01/04 03:56:44;;;;;;;27.83;19.97;;;4.00;99.90;;;;;;5092667;28;20219;-59
2021/01/04 03:59:13;;;;;;;30.40;19.80;;;4.00;99.90;;;;;;5092542;28;20277;-59
2021/01/04 04:01:40;;;;;;;29.03;20.57;;;4.00;99.90;;;;;;5093130;28;20557;-59
2021/01/04 04:04:06;;;;;;;31.77;20.93;;;4.00;99.90;;;;;;5092554;28;20212;-59
2021/01/04 04:06:32;;;;;;;33.97;22.80;;;4.20;99.90;;;;;;5092541;28;20221;-59
2021/01/04 04:08:59;;;;;;;30.80;20.93;;;4.30;99.90;;;;;;5092101;28;20282;-59
2021/01/04 04:11:25;;;;;;;30.03;21.13;;;4.40;99.90;;;;;;5092577;28;20204;-59
2021/01/04 04:13:51;;;;;;;32.97;23.13;;;4.50;99.90;;;;;;5092937;28;20424;-58
2021/01/04 04:16:17;;;;;;;26.53;19.10;;;4.60;99.90;;;;;;5092994;28;20254;-58
2021/01/04 04:18:44;;;;;;;29.30;20.37;;;4.70;99.90;;;;;;5092096;28;20232;-58
2021/01/04 04:21:13;;;;;;;29.17;20.27;;;4.70;99.90;;;;;;5092209;28;20200;-58
2021/01/04 04:23:39;;;;;;;29.93;20.97;;;4.80;99.90;;;;;;5092395;28;20227;-59
2021/01/04 04:26:06;;;;;;;30.47;20.80;;;4.80;99.90;;;;;;5092155;28;20224;-59
2021/01/04 04:28:32;;;;;;;27.63;20.37;;;4.80;99.90;;;;;;5091668;28;20228;-59
2021/01/04 04:30:58;;;;;;;30.03;21.37;;;4.80;99.90;;;;;;5092152;28;20231;-58
2021/01/04 04:33:25;;;;;;;29.50;20.27;;;4.80;99.90;;;;;;5092021;28;20246;-58
2021/01/04 04:35:52;;;;;;;35.07;24.17;;;4.80;99.90;;;;;;5091901;28;20204;-58
2021/01/04 04:38:18;;;;;;;31.37;21.80;;;4.80;99.90;;;;;;5091708;28;20251;-59
2021/01/04 04:40:50;;;;;;;29.00;20.53;;;4.80;99.90;;;;;;5091744;28;20216;-59
2021/01/04 04:43:26;;;;;;;34.97;25.20;;;4.90;99.90;;;;;;5091779;28;20770;-59
2021/01/04 04:45:55;;;;;;;29.97;21.70;;;4.80;99.90;;;;;;5091783;28;20229;-59
2021/01/04 04:48:50;;;;;;;29.43;21.30;;;4.80;99.90;;;;;;5091518;28;20735;-60
2021/01/04 04:51:44;;;;;;;34.23;23.70;;;4.70;99.90;;;;;;5091472;28;20208;-59
2021/01/04 04:54:55;;;;;;;28.57;20.67;;;4.70;99.90;;;;;;5088594;28;20208;-58
2021/01/04 04:57:38;;;;;;;31.90;21.77;;;4.60;99.90;;;;;;5026363;28;20217;-59
2021/01/04 05:00:14;;;;;;;26.33;19.13;;;4.60;99.90;;;;;;5090336;28;20232;-58
2021/01/04 05:02:51;;;;;;;28.00;20.43;;;4.60;99.90;;;;;;5091710;28;20207;-58
2021/01/04 05:05:23;;;;;;;28.37;20.60;;;4.50;99.90;;;;;;5091242;28;20232;-59
2021/01/04 05:07:56;;;;;;;27.67;20.77;;;4.50;99.90;;;;;;5091035;28;20628;-59
2021/01/04 05:10:26;;;;;;;30.23;20.90;;;4.50;99.90;;;;;;5091477;28;20582;-59
2021/01/04 05:13:04;;;;;;;29.40;21.07;;;4.50;99.90;;;;;;5091384;28;20204;-59
2021/01/04 05:15:42;;;;;;;29.07;19.87;;;4.50;99.90;;;;;;5091001;28;20234;-59
2021/01/04 05:18:57;;;;;;;30.20;20.53;;;4.50;99.90;;;;;;5090850;28;20215;-58
2021/01/04 05:21:56;;;;;;;40.00;30.20;;;4.50;99.90;;;;;;5091098;28;20212;-59
2021/01/04 05:24:50;;;;;;;28.80;19.47;;;4.40;99.90;;;;;;5078944;28;20235;-59
2021/01/04 05:27:54;;;;;;;27.63;19.80;;;4.40;99.90;;;;;;5091348;28;20219;-58
2021/01/04 05:30:31;;;;;;;28.37;19.43;;;4.40;99.90;;;;;;5065081;28;20214;-59
2021/01/04 05:33:06;;;;;;;28.83;19.20;;;4.30;99.90;;;;;;5091177;28;20212;-58
2021/01/04 05:35:35;;;;;;;33.17;21.13;;;4.30;99.90;;;;;;5090924;28;20227;-58
2021/01/04 05:38:12;;;;;;;28.27;19.70;;;4.20;99.90;;;;;;5090751;28;20207;-59
2021/01/04 05:41:12;;;;;;;28.93;20.60;;;4.20;99.90;;;;;;5091109;28;20212;-59
2021/01/04 05:43:54;;;;;;;28.53;20.57;;;4.20;99.90;;;;;;5090732;28;20200;-59
2021/01/04 05:46:26;;;;;;;29.40;20.50;;;4.20;99.90;;;;;;5090957;28;20235;-59
2021/01/04 05:49:09;;;;;;;27.63;19.70;;;4.20;99.90;;;;;;5090596;28;20716;-58
2021/01/04 05:51:39;;;;;;;29.43;20.40;;;4.20;99.90;;;;;;5090602;28;20215;-59
2021/01/04 05:54:05;;;;;;;28.57;20.63;;;4.20;99.90;;;;;;5090664;28;20208;-59
2021/01/04 05:56:33;;;;;;;30.13;20.70;;;4.30;99.90;;;;;;5090957;28;20200;-59
2021/01/04 05:59:09;;;;;;;29.27;20.20;;;4.20;99.90;;;;;;5090587;28;20228;-59
2021/01/04 06:01:36;;;;;;;29.27;21.00;;;4.20;99.90;;;;;;5090839;28;20203;-59
2021/01/04 06:04:04;;;;;;;34.57;24.37;;;4.20;99.90;;;;;;5090358;28;20216;-59
2021/01/04 06:06:34;;;;;;;31.77;21.47;;;4.20;99.90;;;;;;5090777;28;20598;-59
2021/01/04 06:09:07;;;;;;;28.50;20.60;;;4.20;99.90;;;;;;5090405;28;20243;-58
2021/01/04 06:11:33;;;;;;;31.83;20.47;;;4.30;99.90;;;;;;5090688;28;20208;-59
2021/01/04 06:14:05;;;;;;;30.10;21.03;;;4.40;99.90;;;;;;5090071;28;20668;-59
2021/01/04 06:16:33;;;;;;;29.50;20.50;;;4.40;99.90;;;;;;5090509;28;20204;-59
2021/01/04 06:19:09;;;;;;;27.53;20.27;;;4.50;99.90;;;;;;5090154;28;20232;-59
2021/01/04 06:21:58;;;;;;;29.57;20.10;;;4.50;99.90;;;;;;5090273;28;20290;-59
2021/01/04 06:24:30;;;;;;;27.10;20.53;;;4.60;99.90;;;;;;5085712;28;20691;-59
2021/01/04 06:27:00;;;;;;;28.57;19.93;;;4.60;99.90;;;;;;5090369;28;20203;-62
2021/01/04 06:29:36;;;;;;;31.83;22.57;;;4.60;99.90;;;;;;5090361;28;20239;-60
2021/01/04 06:32:06;;;;;;;29.83;20.00;;;4.60;99.90;;;;;;5090499;28;20208;-58
2021/01/04 06:34:34;;;;;;;31.47;21.57;;;4.70;99.90;;;;;;5092384;28;20211;-59
2021/01/04 06:37:02;;;;;;;30.30;20.30;;;4.70;99.90;;;;;;5094409;28;20579;-59
2021/01/04 06:39:32;;;;;;;28.47;20.27;;;4.60;99.90;;;;;;5094051;28;20228;-59
2021/01/04 06:42:11;;;;;;;29.00;20.67;;;4.50;99.90;;;;;;5093831;28;20211;-60
2021/01/04 06:44:38;;;;;;;28.47;20.00;;;4.50;99.90;;;;;;5093622;28;20528;-60
2021/01/04 06:47:25;;;;;;;30.23;20.80;;;4.70;99.90;;;;;;5094096;28;20200;-59
2021/01/04 06:49:59;;;;;;;30.30;20.40;;;4.60;99.90;;;;;;5093509;28;20243;-60
2021/01/04 06:52:57;;;;;;;27.07;19.47;;;4.70;99.90;;;;;;5094112;28;20632;-60
2021/01/04 06:55:50;;;;;;;30.13;19.60;;;4.70;99.90;;;;;;5093305;28;20207;-59
2021/01/04 06:58:53;;;;;;;27.87;18.83;;;4.60;99.90;;;;;;5093785;28;20284;-60
2021/01/04 07:01:52;;;;;;;25.83;18.30;;;4.60;99.90;;;;;;5093957;28;20207;-59
2021/01/04 07:04:33;;;;;;;28.40;19.63;;;4.50;99.90;;;;;;5093542;28;20211;-59
2021/01/04 07:07:22;;;;;;;29.33;19.90;;;4.40;99.90;;;;;;5094137;28;20196;-59
2021/01/04 07:10:22;;;;;;;46.57;30.40;;;4.30;99.90;;;;;;5093595;28;20224;-59
2021/01/04 07:13:16;;;;;;;33.50;22.80;;;4.20;99.90;;;;;;5093740;28;20633;-59
2021/01/04 07:15:53;;;;;;;32.67;21.03;;;4.20;99.90;;;;;;5093320;28;20219;-59
2021/01/04 07:18:35;;;;;;;28.17;19.10;;;4.20;99.90;;;;;;5093140;28;20605;-59
2021/01/04 07:21:28;;;;;;;29.37;21.47;;;4.30;99.90;;;;;;5093629;28;20203;-59
2021/01/04 07:24:09;;;;;;;31.67;20.90;;;4.40;99.90;;;;;;5093343;28;20253;-58
2021/01/04 07:26:47;;;;;;;27.20;20.07;;;4.40;99.90;;;;;;5093222;28;20680;-59
2021/01/04 07:29:36;;;;;;;28.50;19.20;;;4.40;99.90;;;;;;5092994;28;20235;-60
2021/01/04 07:32:09;;;;;;;26.77;17.97;;;4.50;99.90;;;;;;5093455;28;20204;-60
2021/01/04 07:34:41;;;;;;;31.23;20.77;;;4.50;99.90;;;;;;5092926;28;20223;-60
2021/01/04 07:37:29;;;;;;;29.93;19.07;;;4.60;99.90;;;;;;5093303;28;20204;-58
2021/01/04 07:40:01;;;;;;;27.83;18.97;;;4.50;99.90;;;;;;5093033;28;20723;-59
2021/01/04 07:42:52;;;;;;;28.13;18.83;;;4.50;99.90;;;;;;5093413;28;20215;-59
2021/01/04 07:45:39;;;;;;;29.63;20.77;;;4.50;99.90;;;;;;5091791;28;20241;-60
2021/01/04 07:48:41;;;;;;;37.93;23.40;;;4.50;99.90;;;;;;5093119;28;20208;-59
2021/01/04 07:51:40;;;;;;;37.27;22.90;;;4.60;99.90;;;;;;5061746;28;20257;-59
2021/01/04 07:54:43;;;;;;;27.43;19.30;;;4.70;99.90;;;;;;5092540;28;20688;-59
2021/01/04 07:57:44;;;;;;;31.20;21.17;;;4.70;99.90;;;;;;5092817;28;20262;-61
2021/01/04 08:00:53;;;;;;;30.23;20.67;;;4.70;99.90;;;;;;5092797;28;20270;-59
2021/01/04 08:03:49;;;;;;;28.83;20.00;;;4.70;99.90;;;;;;5077052;28;20253;-59
2021/01/04 08:06:32;;;;;;;26.57;19.00;;;4.70;99.90;;;;;;5092797;28;20220;-59
2021/01/04 08:09:05;;;;;;;26.87;19.07;;;4.70;99.90;;;;;;5092263;28;20236;-59
2021/01/04 08:11:55;;;;;;;28.80;19.63;;;4.80;99.90;;;;;;5092814;28;20211;-59
2021/01/04 08:14:50;;;;;;;27.07;19.47;;;4.80;99.90;;;;;;5092685;28;20633;-59
2021/01/04 08:17:26;;;;;;;24.83;18.27;;;4.80;99.90;;;;;;5092452;28;20223;-59
2021/01/04 08:19:55;;;;;;;28.60;20.03;;;4.80;99.90;;;;;;5091741;28;20384;-59
2021/01/04 08:22:37;;;;;;;28.90;20.70;;;4.80;99.90;;;;;;5092932;28;20668;-58
2021/01/04 08:25:10;;;;;;;25.07;18.67;;;4.90;99.90;;;;;;5092885;28;20227;-58
2021/01/04 08:27:54;;;;;;;26.67;19.23;;;5.00;99.90;;;;;;5092740;28;20261;-60
2021/01/04 08:30:25;;;;;;;26.23;18.23;;;5.10;99.90;;;;;;5093002;28;20204;-59
2021/01/04 08:32:58;;;;;;;27.40;19.17;;;5.20;99.90;;;;;;5092757;28;20204;-58
2021/01/04 08:35:36;;;;;;;27.70;18.40;;;5.30;99.90;;;;;;5092007;28;20572;-58
2021/01/04 08:38:19;;;;;;;25.40;17.93;;;5.30;99.90;;;;;;5091913;28;20200;-59
2021/01/04 08:40:58;;;;;;;24.93;17.80;;;5.30;99.90;;;;;;5092403;28;20228;-58
2021/01/04 08:43:34;;;;;;;26.70;18.27;;;5.10;99.90;;;;;;5091847;28;20208;-59
2021/01/04 08:46:13;;;;;;;27.57;17.53;;;5.00;99.90;;;;;;5091866;28;20224;-58
2021/01/04 08:48:40;;;;;;;26.40;18.33;;;5.00;99.90;;;;;;5091464;28;20223;-58
2021/01/04 08:51:09;;;;;;;27.60;18.43;;;5.00;99.90;;;;;;5091872;28;20321;-58
2021/01/04 08:53:36;;;;;;;28.40;18.73;;;5.10;99.90;;;;;;5091513;28;20261;-58
2021/01/04 08:56:14;;;;;;;25.10;18.20;;;5.30;99.90;;;;;;5091558;28;20571;-58
2021/01/04 08:58:44;;;;;;;26.23;18.40;;;5.30;99.90;;;;;;5091302;28;20497;-58
2021/01/04 09:01:21;;;;;;;25.57;18.10;;;5.30;99.90;;;;;;5091303;28;20299;-58
2021/01/04 09:03:48;;;;;;;25.50;18.57;;;5.30;99.90;;;;;;5091607;28;20207;-58
2021/01/04 09:06:30;;;;;;;26.70;18.80;;;5.30;99.90;;;;;;5091999;28;20708;-59
2021/01/04 09:09:08;;;;;;;26.43;18.00;;;5.30;99.90;;;;;;5090974;28;20224;-58
2021/01/04 09:11:48;;;;;;;25.67;17.37;;;5.20;99.90;;;;;;5091719;28;20574;-57
2021/01/04 09:14:24;;;;;;;25.17;17.00;;;5.20;99.90;;;;;;5091212;28;20242;-57
2021/01/04 09:16:51;;;;;;;25.40;17.17;;;5.10;99.90;;;;;;5091534;28;20204;-60
2021/01/04 09:19:24;;;;;;;24.90;16.77;;;5.20;99.90;;;;;;5091730;28;20318;-59
2021/01/04 09:21:52;;;;;;;22.10;16.17;;;5.00;99.90;;;;;;5091421;28;20208;-59
2021/01/04 09:24:33;;;;;;;23.13;17.10;;;5.00;99.90;;;;;;5091024;28;20549;-59
2021/01/04 09:27:03;;;;;;;24.80;18.17;;;5.10;99.90;;;;;;5091200;28;20224;-59
2021/01/04 09:29:33;;;;;;;22.93;17.20;;;5.10;99.90;;;;;;5090539;28;20329;-59
2021/01/04 09:32:05;;;;;;;23.17;17.30;;;5.00;99.90;;;;;;5091025;28;20673;-59
2021/01/04 09:34:31;;;;;;;24.60;17.30;;;5.00;99.90;;;;;;5090689;28;20208;-59
2021/01/04 09:37:03;;;;;;;24.40;16.57;;;5.10;99.90;;;;;;5091145;28;20212;-59
2021/01/04 09:39:31;;;;;;;26.47;18.40;;;5.10;99.90;;;;;;5090420;28;20634;-59
2021/01/04 09:41:59;;;;;;;53.33;34.30;;;5.10;99.90;;;;;;5090964;28;20211;-59
2021/01/04 09:44:26;;;;;;;44.67;30.27;;;5.10;99.90;;;;;;5090523;28;20676;-59
2021/01/04 09:46:57;;;;;;;28.73;19.87;;;5.10;99.90;;;;;;5090740;28;20220;-59
2021/01/04 09:49:28;;;;;;;31.73;21.57;;;5.20;99.90;;;;;;5090644;28;20231;-59
2021/01/04 09:52:01;;;;;;;30.63;20.50;;;5.20;99.90;;;;;;5091066;28;20264;-58
2021/01/04 09:54:33;;;;;;;31.20;21.57;;;5.10;99.90;;;;;;5090784;28;20591;-59
2021/01/04 09:57:01;;;;;;;31.40;20.73;;;5.00;99.90;;;;;;5090881;28;20200;-59
2021/01/04 09:59:28;;;;;;;28.53;20.13;;;5.00;99.90;;;;;;5090203;28;20246;-59
2021/01/04 10:01:59;;;;;;;38.00;25.80;;;5.00;99.90;;;;;;5090924;28;20208;-59
2021/01/04 10:04:28;;;;;;;30.43;21.23;;;5.10;99.90;;;;;;5090514;28;20208;-59
2021/01/04 10:06:54;;;;;;;24.63;17.77;;;5.20;99.90;;;;;;5090656;28;20624;-59
2021/01/04 10:09:21;;;;;;;27.00;18.87;;;5.20;99.90;;;;;;5092677;28;20250;-59
2021/01/04 10:11:49;;;;;;;24.70;17.60;;;5.30;99.90;;;;;;5094906;28;20208;-59
2021/01/04 10:14:18;;;;;;;28.93;20.60;;;5.30;99.90;;;;;;5094628;28;20212;-58
2021/01/04 10:16:50;;;;;;;28.20;19.23;;;5.30;99.90;;;;;;5094970;28;20664;-58
2021/01/04 10:19:23;;;;;;;28.17;19.67;;;5.40;99.90;;;;;;5094429;28;20232;-58
2021/01/04 10:21:58;;;;;;;28.83;20.70;;;5.60;99.90;;;;;;5094784;28;20260;-58
2021/01/04 10:24:27;;;;;;;25.90;18.00;;;5.70;99.90;;;;;;5094367;28;20208;-58
2021/01/04 10:26:55;;;;;;;24.80;17.33;;;5.80;99.90;;;;;;5094455;28;20232;-59
2021/01/04 10:29:26;;;;;;;22.93;16.90;;;5.80;99.90;;;;;;5094263;28;20263;-59
2021/01/04 10:32:04;;;;;;;23.57;16.97;;;5.80;99.90;;;;;;5094396;28;20212;-59
2021/01/04 10:34:43;;;;;;;25.47;17.97;;;5.80;99.90;;;;;;5094527;28;20265;-59
2021/01/04 10:37:25;;;;;;;29.40;20.33;;;5.70;99.90;;;;;;5094471;28;20208;-59
2021/01/04 10:39:58;;;;;;;21.80;15.23;;;5.70;99.90;;;;;;5095002;28;20224;-59
2021/01/04 10:42:25;;;;;;;19.03;14.70;;;5.70;99.90;;;;;;5095910;28;20211;-59
2021/01/04 10:45:03;;;;;;;20.53;15.50;;;5.70;99.90;;;;;;5095433;28;20733;-59
2021/01/04 10:47:38;;;;;;;23.07;16.90;;;5.50;99.90;;;;;;5094346;28;20204;-59
2021/01/04 10:50:07;;;;;;;22.17;16.00;;;5.40;99.90;;;;;;5094510;28;20251;-59
2021/01/04 10:52:33;;;;;;;21.00;14.63;;;5.50;99.90;;;;;;5094271;28;20204;-59
2021/01/04 10:55:00;;;;;;;19.33;15.13;;;5.30;99.90;;;;;;5093826;28;20212;-59
2021/01/04 10:57:31;;;;;;;23.53;16.03;;;5.30;99.90;;;;;;5093914;28;20211;-59
2021/01/04 11:00:05;;;;;;;21.83;16.13;;;5.40;99.90;;;;;;5093592;28;20231;-59
2021/01/04 11:02:38;;;;;;;20.87;16.20;;;5.40;99.90;;;;;;5093953;28;20664;-59
2021/01/04 11:05:07;;;;;;;24.57;16.53;;;5.60;99.90;;;;;;5093535;28;20236;-59
2021/01/04 11:07:33;;;;;;;22.97;15.87;;;5.70;99.90;;;;;;5093555;28;20733;-59
2021/01/04 11:10:11;;;;;;;20.43;15.20;;;5.80;99.90;;;;;;5093154;28;20289;-59
2021/01/04 11:12:46;;;;;;;21.50;15.33;;;5.80;99.90;;;;;;5093569;28;20291;-59
2021/01/04 11:15:24;;;;;;;22.30;15.20;;;5.90;99.90;;;;;;5092908;28;20299;-59
2021/01/04 11:18:03;;;;;;;23.00;16.43;;;5.90;99.90;;;;;;5092810;28;20286;-59
2021/01/04 11:20:30;;;;;;;21.50;15.50;;;5.90;99.90;;;;;;5092679;28;20212;-59
2021/01/04 11:23:00;;;;;;;20.83;15.50;;;5.80;99.90;;;;;;5093391;28;20211;-59
2021/01/04 11:25:26;;;;;;;25.53;16.47;;;5.80;99.90;;;;;;5093261;28;20236;-59
2021/01/04 11:27:52;;;;;;;21.67;15.90;;;5.90;99.90;;;;;;5093419;28;20207;-59
2021/01/04 11:30:19;;;;;;;19.47;14.97;;;6.00;99.90;;;;;;5093167;28;20246;-59
2021/01/04 11:32:46;;;;;;;23.63;15.27;;;6.10;99.90;;;;;;5093324;28;20209;-59
2021/01/04 11:35:12;;;;;;;20.63;14.60;;;6.20;99.90;;;;;;5092726;28;20676;-59
2021/01/04 11:37:39;;;;;;;20.87;15.33;;;6.10;99.90;;;;;;5093042;28;20212;-60
2021/01/04 11:40:09;;;;;;;19.60;13.97;;;6.20;99.90;;;;;;5093062;28;20731;-60
2021/01/04 11:42:35;;;;;;;21.97;15.60;;;6.10;99.90;;;;;;5093406;28;20204;-59
2021/01/04 11:45:05;;;;;;;19.17;14.27;;;6.10;99.90;;;;;;5092943;28;20231;-60
2021/01/04 11:47:32;;;;;;;21.23;15.23;;;6.00;99.90;;;;;;5093224;28;20223;-60
2021/01/04 11:49:58;;;;;;;20.60;14.03;;;6.00;99.90;;;;;;5092582;28;20224;-60
2021/01/04 11:52:24;;;;;;;19.37;14.33;;;6.00;99.90;;;;;;5093253;28;20210;-59
2021/01/04 11:54:51;;;;;;;16.90;12.60;;;5.90;99.90;;;;;;5092511;28;20215;-59
2021/01/04 11:57:17;;;;;;;19.27;14.13;;;5.80;99.90;;;;;;5092908;28;20204;-60
2021/01/04 11:59:44;;;;;;;20.10;13.60;;;5.80;99.90;;;;;;5092307;28;20228;-61
2021/01/04 12:02:11;;;;;;;19.27;13.60;;;5.70;99.90;;;;;;5093124;28;20200;-60
2021/01/04 12:04:37;;;;;;;18.63;13.47;;;5.70;99.90;;;;;;5092043;28;20204;-61
2021/01/04 12:07:03;;;;;;;19.57;13.13;;;5.60;99.90;;;;;;5092572;28;20220;-60
2021/01/04 12:09:30;;;;;;;18.50;13.47;;;5.60;99.90;;;;;;5092448;28;20301;-59
2021/01/04 12:11:57;;;;;;;20.37;14.70;;;5.70;99.90;;;;;;5092901;28;20257;-59
2021/01/04 12:14:23;;;;;;;17.63;12.97;;;5.80;99.90;;;;;;5092000;28;20233;-60
2021/01/04 12:16:49;;;;;;;18.73;13.60;;;5.80;99.90;;;;;;5092226;28;20204;-60
2021/01/04 12:19:16;;;;;;;17.43;13.23;;;5.80;99.90;;;;;;5091759;28;20236;-60
2021/01/04 12:21:42;;;;;;;19.83;15.03;;;5.70;99.90;;;;;;5092609;28;20200;-60
2021/01/04 12:24:09;;;;;;;18.90;13.87;;;5.70;99.90;;;;;;5092537;28;20203;-61
2021/01/04 12:26:35;;;;;;;20.23;14.63;;;5.70;99.90;;;;;;5092451;28;20227;-60
2021/01/04 12:29:02;;;;;;;18.77;13.93;;;5.70;99.90;;;;;;5092401;28;20573;-60
2021/01/04 12:31:28;;;;;;;18.60;13.60;;;5.60;99.90;;;;;;5092103;28;20556;-60
2021/01/04 12:33:54;;;;;;;19.63;13.53;;;5.50;99.90;;;;;;5091951;28;20213;-60
2021/01/04 12:36:22;;;;;;;18.97;13.10;;;5.40;99.90;;;;;;5092574;28;20200;-60
2021/01/04 12:38:49;;;;;;;17.60;13.23;;;5.50;99.90;;;;;;5091770;28;20230;-58
2021/01/04 12:41:16;;;;;;;18.90;13.57;;;5.50;99.90;;;;;;5092100;28;20204;-59
2021/01/04 12:43:43;;;;;;;16.07;12.90;;;5.40;99.90;;;;;;5092298;28;20211;-60
2021/01/04 12:46:12;;;;;;;16.77;13.90;;;5.40;99.90;;;;;;5091056;28;20957;-59
2021/01/04 12:48:38;;;;;;;16.93;13.43;;;5.40;99.90;;;;;;5091488;28;20707;-59
2021/01/04 12:51:07;;;;;;;16.63;12.37;;;5.40;99.90;;;;;;5092209;28;20645;-59
2021/01/04 12:53:33;;;;;;;16.30;12.27;;;5.30;99.90;;;;;;5091517;28;20607;-60
2021/01/04 12:55:59;;;;;;;16.07;12.50;;;5.30;99.90;;;;;;5092304;28;20215;-59
2021/01/04 12:58:26;;;;;;;17.10;12.60;;;5.20;99.90;;;;;;5091515;28;20231;-59
2021/01/04 13:00:53;;;;;;;16.93;12.57;;;5.20;99.90;;;;;;5091627;28;20242;-59
2021/01/04 13:03:20;;;;;;;18.67;12.57;;;5.10;99.90;;;;;;5092064;28;20696;-61
2021/01/04 13:05:47;;;;;;;18.97;12.63;;;5.10;99.90;;;;;;5091929;28;20228;-60
2021/01/04 13:08:14;;;;;;;19.40;12.80;;;5.20;99.90;;;;;;5091329;28;20200;-59
2021/01/04 13:10:40;;;;;;;18.87;12.73;;;5.30;99.90;;;;;;5091785;28;20204;-59
2021/01/04 13:13:06;;;;;;;17.97;12.23;;;5.40;99.90;;;;;;5091481;28;20204;-60
2021/01/04 13:15:32;;;;;;;18.83;13.40;;;5.40;99.90;;;;;;5091309;28;20211;-60